createdAt,value
2019-05-25T00:00:33.540Z,66.86
2019-05-25T00:01:33.696Z,67.99
2019-05-25T00:02:33.849Z,68.80
2019-05-25T00:03:33.964Z,68.91
2019-05-25T00:04:34.098Z,67.68
2019-05-25T00:05:34.250Z,65.74
2019-05-25T00:06:34.414Z,66.46
2019-05-25T00:07:34.578Z,67.58
2019-05-25T00:08:34.781Z,67.07
2019-05-25T00:09:34.923Z,66.25
2019-05-25T00:10:35.089Z,67.61
2019-05-25T00:11:35.226Z,68.40
2019-05-25T00:12:35.368Z,68.40
2019-05-25T00:13:35.536Z,67.41
2019-05-25T00:14:35.709Z,65.88
2019-05-25T00:15:35.930Z,65.88
2019-05-25T00:16:36.028Z,67.00
2019-05-25T00:17:36.905Z,67.10
2019-05-25T00:18:36.908Z,67.61
2019-05-25T00:19:36.659Z,68.74
2019-05-25T00:20:36.828Z,71.09
2019-05-25T00:21:36.979Z,69.56
2019-05-25T00:22:37.119Z,69.96
2019-05-25T00:23:37.282Z,67.82
2019-05-25T00:24:37.906Z,70.27
2019-05-25T00:25:37.655Z,69.76
2019-05-25T00:26:37.826Z,69.04
2019-05-25T00:27:38.011Z,67.95
2019-05-25T00:28:38.158Z,68.57
2019-05-25T00:29:38.417Z,68.97
2019-05-25T00:30:39.402Z,68.77
2019-05-25T00:31:38.768Z,68.57
2019-05-25T00:32:38.901Z,68.36
2019-05-25T00:33:39.080Z,68.97
2019-05-25T00:34:39.345Z,67.44
2019-05-25T00:35:39.489Z,67.88
2019-05-25T00:36:40.409Z,69.72
2019-05-25T00:37:39.815Z,69.01
2019-05-25T00:38:39.966Z,70.61
2019-05-25T00:39:40.152Z,69.69
2019-05-25T00:40:40.350Z,70.23
2019-05-25T00:41:40.479Z,69.93
2019-05-25T00:42:41.632Z,69.82
2019-05-25T00:43:40.768Z,69.82
2019-05-25T00:44:40.905Z,68.60
2019-05-25T00:45:41.067Z,68.80
2019-05-25T00:46:41.232Z,67.78
2019-05-25T00:47:41.410Z,69.82
2019-05-25T00:48:41.547Z,70.43
2019-05-25T00:49:41.708Z,70.64
2019-05-25T00:50:41.896Z,69.82
2019-05-25T00:51:42.089Z,69.72
2019-05-25T00:52:42.318Z,72.00
2019-05-25T00:53:42.469Z,71.29
2019-05-25T00:54:42.606Z,70.67
2019-05-25T00:55:42.720Z,71.29
2019-05-25T00:56:42.882Z,71.39
2019-05-25T00:57:43.899Z,70.26
2019-05-25T00:58:43.909Z,70.57
2019-05-25T00:59:43.445Z,70.47
2019-05-25T01:00:43.598Z,70.40
2019-05-25T01:01:43.767Z,72.62
2019-05-25T01:02:43.948Z,71.83
2019-05-25T01:03:44.093Z,71.32
2019-05-25T01:04:44.241Z,72.34
2019-05-25T01:05:44.377Z,72.34
2019-05-25T01:06:44.927Z,71.83
2019-05-25T01:07:44.689Z,71.73
2019-05-25T01:08:44.846Z,72.65
2019-05-25T01:09:44.990Z,72.24
2019-05-25T01:10:45.153Z,73.50
2019-05-25T01:11:45.326Z,71.77
2019-05-25T01:12:45.476Z,73.81
2019-05-25T01:13:45.603Z,72.78
2019-05-25T01:14:46.421Z,72.69
2019-05-25T01:15:46.912Z,73.10
2019-05-25T01:16:46.065Z,71.66
2019-05-25T01:17:46.295Z,72.07
2019-05-25T01:18:47.410Z,74.84
2019-05-25T01:19:46.651Z,75.45
2019-05-25T01:20:47.424Z,73.20
2019-05-25T01:21:47.910Z,72.72
2019-05-25T01:22:47.180Z,73.13
2019-05-25T01:23:47.323Z,73.03
2019-05-25T01:24:47.473Z,72.20
2019-05-25T01:26:27.513Z,73.85
2019-05-25T01:26:47.869Z,73.85
2019-05-25T01:27:48.003Z,74.77
2019-05-25T01:28:48.142Z,73.13
2019-05-25T01:29:48.286Z,73.36
2019-05-25T01:30:48.404Z,74.05
2019-05-25T01:31:48.637Z,74.26
2019-05-25T01:32:48.789Z,74.77
2019-05-25T01:33:49.417Z,73.85
2019-05-25T01:34:49.027Z,74.56
2019-05-25T01:35:49.273Z,76.51
2019-05-25T01:36:49.420Z,76.34
2019-05-25T01:37:49.607Z,76.75
2019-05-25T01:38:49.708Z,74.66
2019-05-25T01:39:49.832Z,75.59
2019-05-25T01:40:50.070Z,74.77
2019-05-25T01:41:50.940Z,75.31
2019-05-25T01:42:50.452Z,75.11
2019-05-25T01:43:50.564Z,75.42
2019-05-25T01:44:50.791Z,74.60
2019-05-25T01:45:50.917Z,75.21
2019-05-25T01:46:51.074Z,76.54
2019-05-25T01:47:51.250Z,76.75
2019-05-25T01:48:51.489Z,74.70
2019-05-25T01:49:51.532Z,73.78
2019-05-25T01:50:51.667Z,73.88
2019-05-25T01:51:51.840Z,75.35
2019-05-25T01:52:52.922Z,75.15
2019-05-25T01:53:52.177Z,74.94
2019-05-25T01:54:59.856Z,75.56
2019-05-25T01:55:54.546Z,74.63
2019-05-25T01:56:52.642Z,76.48
2019-05-25T01:57:52.791Z,75.24
2019-05-25T01:58:52.927Z,75.59
2019-05-25T01:59:53.935Z,75.28
2019-05-25T02:00:53.309Z,75.79
2019-05-25T02:01:53.453Z,76.72
2019-05-25T02:02:53.608Z,76.31
2019-05-25T02:03:53.776Z,75.56
2019-05-25T02:04:54.937Z,76.72
2019-05-25T02:05:54.097Z,76.58
2019-05-25T02:06:54.258Z,77.20
2019-05-25T02:07:54.403Z,76.41
2019-05-25T02:08:54.669Z,77.20
2019-05-25T02:09:54.885Z,76.37
2019-05-25T02:10:55.023Z,76.41
2019-05-25T02:11:55.222Z,76.82
2019-05-25T02:12:55.359Z,76.31
2019-05-25T02:13:55.489Z,76.45
2019-05-25T02:14:55.602Z,76.92
2019-05-25T02:15:55.783Z,76.75
2019-05-25T02:16:55.912Z,76.86
2019-05-25T02:17:56.138Z,76.79
2019-05-25T02:18:56.919Z,78.23
2019-05-25T02:19:56.421Z,78.12
2019-05-25T02:21:03.324Z,79.05
2019-05-25T02:21:56.696Z,79.05
2019-05-25T02:22:56.853Z,79.63
2019-05-25T02:23:56.958Z,80.07
2019-05-25T02:24:57.214Z,79.01
2019-05-25T02:25:57.341Z,78.64
2019-05-25T02:26:57.523Z,78.33
2019-05-25T02:27:57.663Z,78.23
2019-05-25T02:28:57.758Z,78.60
2019-05-25T02:29:58.981Z,78.81
2019-05-25T02:30:58.231Z,78.70
2019-05-25T02:31:58.334Z,78.19
2019-05-25T02:32:58.557Z,80.65
2019-05-25T02:33:58.667Z,78.50
2019-05-25T02:34:58.838Z,78.29
2019-05-25T02:35:59.036Z,78.64
2019-05-25T02:36:59.186Z,78.64
2019-05-25T02:37:59.321Z,78.98
2019-05-25T02:38:59.448Z,78.74
2019-05-25T02:39:59.573Z,78.64
2019-05-25T02:40:59.723Z,78.47
2019-05-25T02:41:59.868Z,79.66
2019-05-25T02:42:59.988Z,79.29
2019-05-25T02:44:00.133Z,79.19
2019-05-25T02:45:00.291Z,80.01
2019-05-25T02:46:00.430Z,80.11
2019-05-25T02:47:00.566Z,80.73
2019-05-25T02:48:00.700Z,80.83
2019-05-25T02:49:00.844Z,82.17
2019-05-25T02:50:00.966Z,80.52
2019-05-25T02:51:01.107Z,80.63
2019-05-25T02:52:01.259Z,80.63
2019-05-25T02:53:01.508Z,81.04
2019-05-25T02:54:02.438Z,80.42
2019-05-25T02:55:01.792Z,80.42
2019-05-25T02:56:02.052Z,81.24
2019-05-25T02:57:02.199Z,81.34
2019-05-25T02:58:02.323Z,80.42
2019-05-25T02:59:02.478Z,80.05
2019-05-25T03:00:02.614Z,80.11
2019-05-25T03:01:02.961Z,80.25
2019-05-25T03:02:02.963Z,80.56
2019-05-25T03:03:03.231Z,81.04
2019-05-25T03:04:03.344Z,80.77
2019-05-25T03:05:03.480Z,82.10
2019-05-25T03:06:04.035Z,81.96
2019-05-25T03:07:03.825Z,81.38
2019-05-25T03:08:03.967Z,81.18
2019-05-25T03:09:04.147Z,81.90
2019-05-25T03:10:04.463Z,82.62
2019-05-25T03:11:04.496Z,81.18
2019-05-25T03:12:04.642Z,82.20
2019-05-25T03:13:04.798Z,81.07
2019-05-25T03:14:04.955Z,80.87
2019-05-25T03:15:05.457Z,81.07
2019-05-25T03:16:05.277Z,80.83
2019-05-25T03:17:05.422Z,81.07
2019-05-25T03:18:05.605Z,82.57
2019-05-25T03:19:05.747Z,81.04
2019-05-25T03:20:05.899Z,80.46
2019-05-25T03:21:06.054Z,81.04
2019-05-25T03:22:06.194Z,81.34
2019-05-25T03:23:06.440Z,81.45
2019-05-25T03:24:06.597Z,81.65
2019-05-25T03:25:06.737Z,80.42
2019-05-25T03:26:06.871Z,80.83
2019-05-25T03:27:07.093Z,80.42
2019-05-25T03:28:08.250Z,80.52
2019-05-25T03:29:07.462Z,80.49
2019-05-25T03:30:07.616Z,80.42
2019-05-25T03:31:07.746Z,80.58
2019-05-25T03:32:07.900Z,81.10
2019-05-25T03:33:08.070Z,81.30
2019-05-25T03:34:08.208Z,80.65
2019-05-25T03:35:08.977Z,80.35
2019-05-25T03:36:09.609Z,80.24
2019-05-25T03:37:08.829Z,80.24
2019-05-25T03:38:08.963Z,79.69
2019-05-25T03:39:09.215Z,79.69
2019-05-25T03:40:09.453Z,80.51
2019-05-25T03:41:09.671Z,80.41
2019-05-25T03:42:09.805Z,80.31
2019-05-25T03:43:10.052Z,79.80
2019-05-25T03:44:10.274Z,79.90
2019-05-25T03:45:10.555Z,80.51
2019-05-25T03:46:11.438Z,80.00
2019-05-25T03:47:10.885Z,80.31
2019-05-25T03:48:11.029Z,80.47
2019-05-25T03:49:11.157Z,80.47
2019-05-25T03:50:11.452Z,79.86
2019-05-25T03:51:11.457Z,79.55
2019-05-25T03:52:11.594Z,79.66
2019-05-25T03:53:11.739Z,79.24
2019-05-25T03:54:11.986Z,79.82
2019-05-25T03:55:12.098Z,80.03
2019-05-25T03:56:12.357Z,79.04
2019-05-25T03:57:12.464Z,79.96
2019-05-25T03:58:12.613Z,79.72
2019-05-25T03:59:12.739Z,80.03
2019-05-25T04:00:12.878Z,80.44
2019-05-25T04:01:12.993Z,81.09
2019-05-25T04:02:13.141Z,80.44
2019-05-25T04:03:13.271Z,78.80
2019-05-25T04:04:13.951Z,78.94
2019-05-25T04:05:13.715Z,79.11
2019-05-25T04:06:14.452Z,80.27
2019-05-25T04:07:14.937Z,80.13
2019-05-25T04:08:14.150Z,80.95
2019-05-25T04:09:14.391Z,80.13
2019-05-25T04:10:14.961Z,79.72
2019-05-25T04:11:14.712Z,78.59
2019-05-25T04:12:14.836Z,79.82
2019-05-25T04:13:14.992Z,79.41
2019-05-25T04:14:15.119Z,79.31
2019-05-25T04:15:15.222Z,79.00
2019-05-25T04:16:15.478Z,79.79
2019-05-25T04:17:16.614Z,78.97
2019-05-25T04:18:15.831Z,78.56
2019-05-25T04:19:15.964Z,78.86
2019-05-25T04:20:16.117Z,80.19
2019-05-25T04:21:16.246Z,79.79
2019-05-25T04:22:16.388Z,80.19
2019-05-25T04:23:16.537Z,79.68
2019-05-25T04:24:16.673Z,79.07
2019-05-25T04:25:16.828Z,78.25
2019-05-25T04:26:22.382Z,77.80
2019-05-25T04:27:19.197Z,78.31
2019-05-25T04:28:17.402Z,80.57
2019-05-25T04:29:17.557Z,80.67
2019-05-25T04:30:17.681Z,81.04
2019-05-25T04:31:17.864Z,79.75
2019-05-25T04:32:18.030Z,79.03
2019-05-25T04:33:18.170Z,78.42
2019-05-25T04:34:18.280Z,78.08
2019-05-25T04:35:19.509Z,78.01
2019-05-25T04:36:18.738Z,78.17
2019-05-25T04:37:18.850Z,78.28
2019-05-25T04:38:19.956Z,79.82
2019-05-25T04:39:19.272Z,77.87
2019-05-25T04:40:22.940Z,77.56
2019-05-25T04:41:20.713Z,77.87
2019-05-25T04:42:19.913Z,78.49
2019-05-25T04:43:20.169Z,77.87
2019-05-25T04:44:20.286Z,77.67
2019-05-25T04:45:20.511Z,78.89
2019-05-25T04:46:21.619Z,78.75
2019-05-25T04:47:26.904Z,77.94
2019-05-25T04:48:23.025Z,77.83
2019-05-25T04:49:21.220Z,79.06
2019-05-25T04:50:21.344Z,78.65
2019-05-25T04:51:21.469Z,77.53
2019-05-25T04:52:21.615Z,78.34
2019-05-25T04:53:21.744Z,78.04
2019-05-25T04:54:21.864Z,78.34
2019-05-25T04:55:22.020Z,78.96
2019-05-25T04:56:37.839Z,78.24
2019-05-25T04:57:24.954Z,78.24
2019-05-25T04:58:22.629Z,78.96
2019-05-25T04:59:22.712Z,79.27
2019-05-25T05:00:22.967Z,78.96
2019-05-25T05:01:23.072Z,78.65
2019-05-25T05:02:23.193Z,78.86
2019-05-25T05:03:23.321Z,79.47
2019-05-25T05:04:23.473Z,80.08
2019-05-25T05:05:23.629Z,80.08
2019-05-25T05:06:24.452Z,80.43
2019-05-25T05:07:23.949Z,81.21
2019-05-25T05:08:24.108Z,81.76
2019-05-25T05:09:24.319Z,81.21
2019-05-25T05:10:24.453Z,81.93
2019-05-25T05:11:24.630Z,82.13
2019-05-25T05:12:24.779Z,81.51
2019-05-25T05:13:24.962Z,82.17
2019-05-25T05:14:25.141Z,82.37
2019-05-25T05:15:25.965Z,82.27
2019-05-25T05:16:25.491Z,82.68
2019-05-25T05:17:25.634Z,82.48
2019-05-25T05:18:25.809Z,82.78
2019-05-25T05:19:25.958Z,82.48
2019-05-25T05:20:26.956Z,82.89
2019-05-25T05:21:26.354Z,83.60
2019-05-25T05:22:26.488Z,82.68
2019-05-25T05:23:26.623Z,82.78
2019-05-25T05:24:26.734Z,82.27
2019-05-25T05:25:27.953Z,82.75
2019-05-25T05:26:27.196Z,82.68
2019-05-25T05:27:27.361Z,82.68
2019-05-25T05:28:27.491Z,82.37
2019-05-25T05:29:27.610Z,82.89
2019-05-25T05:30:27.734Z,82.98
2019-05-25T05:31:27.853Z,82.68
2019-05-25T05:32:28.501Z,82.17
2019-05-25T05:33:28.117Z,81.96
2019-05-25T05:34:28.244Z,82.89
2019-05-25T05:35:28.481Z,82.57
2019-05-25T05:36:28.619Z,82.27
2019-05-25T05:37:28.758Z,83.64
2019-05-25T05:38:28.903Z,83.29
2019-05-25T05:39:29.065Z,82.27
2019-05-25T05:40:29.217Z,83.03
2019-05-25T05:41:31.153Z,83.29
2019-05-25T05:42:30.526Z,83.03
2019-05-25T05:43:29.756Z,82.57
2019-05-25T05:44:29.925Z,82.57
2019-05-25T05:45:30.082Z,82.51
2019-05-25T05:46:30.193Z,82.37
2019-05-25T05:47:30.476Z,83.50
2019-05-25T05:48:30.475Z,83.50
2019-05-25T05:49:30.608Z,83.03
2019-05-25T05:50:30.767Z,83.39
2019-05-25T05:51:30.986Z,82.51
2019-05-25T05:52:31.160Z,83.03
2019-05-25T05:53:31.320Z,83.50
2019-05-25T05:54:31.461Z,83.81
2019-05-25T05:55:31.634Z,82.68
2019-05-25T05:56:31.793Z,82.78
2019-05-25T05:57:31.956Z,82.07
2019-05-25T05:58:32.111Z,82.68
2019-05-25T05:59:32.975Z,82.78
2019-05-25T06:00:32.506Z,82.48
2019-05-25T06:01:32.684Z,83.09
2019-05-25T06:02:33.460Z,83.15
2019-05-25T06:03:32.971Z,82.84
2019-05-25T06:04:33.138Z,82.23
2019-05-25T06:05:33.334Z,82.13
2019-05-25T06:06:33.490Z,81.93
2019-05-25T06:07:33.654Z,82.13
2019-05-25T06:08:33.809Z,81.86
2019-05-25T06:09:33.957Z,82.89
2019-05-25T06:10:34.084Z,83.50
2019-05-25T06:11:34.233Z,83.81
2019-05-25T06:12:34.369Z,83.29
2019-05-25T06:13:34.534Z,82.78
2019-05-25T06:14:34.662Z,82.41
2019-05-25T06:15:34.875Z,82.92
2019-05-25T06:16:35.057Z,82.51
2019-05-25T06:17:35.198Z,83.13
2019-05-25T06:18:35.373Z,83.44
2019-05-25T06:19:35.521Z,83.54
2019-05-25T06:20:35.660Z,83.03
2019-05-25T06:21:35.832Z,83.44
2019-05-25T06:22:35.960Z,83.64
2019-05-25T06:23:36.165Z,83.84
2019-05-25T06:24:36.400Z,83.70
2019-05-25T06:25:36.515Z,83.70
2019-05-25T06:26:36.680Z,83.13
2019-05-25T06:27:36.807Z,82.57
2019-05-25T06:28:36.960Z,82.89
2019-05-25T06:29:37.097Z,82.89
2019-05-25T06:30:37.252Z,82.89
2019-05-25T06:31:37.430Z,83.39
2019-05-25T06:32:38.046Z,83.03
2019-05-25T06:33:38.476Z,82.62
2019-05-25T06:34:37.981Z,82.62
2019-05-25T06:35:38.125Z,82.31
2019-05-25T06:36:39.000Z,82.89
2019-05-25T06:37:38.486Z,82.98
2019-05-25T06:38:38.670Z,82.37
2019-05-25T06:39:38.819Z,82.48
2019-05-25T06:40:38.967Z,82.68
2019-05-25T06:41:39.086Z,82.68
2019-05-25T06:42:39.217Z,82.27
2019-05-25T06:43:39.390Z,82.75
2019-05-25T06:44:39.517Z,82.78
2019-05-25T06:45:39.653Z,80.90
2019-05-25T06:46:39.967Z,81.93
2019-05-25T06:47:40.981Z,82.34
2019-05-25T06:48:40.204Z,82.78
2019-05-25T06:49:40.989Z,81.41
2019-05-25T06:50:40.503Z,82.13
2019-05-25T06:51:40.650Z,81.72
2019-05-25T06:52:40.769Z,81.82
2019-05-25T06:53:41.036Z,81.72
2019-05-25T06:54:41.163Z,81.01
2019-05-25T06:55:41.399Z,80.90
2019-05-25T06:56:41.647Z,79.88
2019-05-25T06:57:43.645Z,79.94
2019-05-25T06:58:42.941Z,79.53
2019-05-25T06:59:42.188Z,79.84
2019-05-25T07:00:42.339Z,80.87
2019-05-25T07:01:42.515Z,81.17
2019-05-25T07:02:42.651Z,79.84
2019-05-25T07:03:42.806Z,79.94
2019-05-25T07:04:42.921Z,79.84
2019-05-25T07:05:43.989Z,80.25
2019-05-25T07:06:43.998Z,79.94
2019-05-25T07:07:43.484Z,80.76
2019-05-25T07:08:43.619Z,79.84
2019-05-25T07:09:43.742Z,81.88
2019-05-25T07:10:43.881Z,80.46
2019-05-25T07:11:44.045Z,80.15
2019-05-25T07:12:44.175Z,80.87
2019-05-25T07:13:44.492Z,80.87
2019-05-25T07:14:44.531Z,79.64
2019-05-25T07:15:44.679Z,79.43
2019-05-25T07:16:44.822Z,80.32
2019-05-25T07:17:45.008Z,80.46
2019-05-25T07:18:45.199Z,80.05
2019-05-25T07:19:45.347Z,80.15
2019-05-25T07:20:45.517Z,79.94
2019-05-25T07:21:45.672Z,80.25
2019-05-25T07:22:45.823Z,79.84
2019-05-25T07:23:45.960Z,79.68
2019-05-25T07:24:46.123Z,80.08
2019-05-25T07:25:46.257Z,80.49
2019-05-25T07:26:46.406Z,80.80
2019-05-25T07:27:58.694Z,80.19
2019-05-25T07:28:48.798Z,79.53
2019-05-25T07:29:47.007Z,80.08
2019-05-25T07:30:47.175Z,80.08
2019-05-25T07:31:47.304Z,79.57
2019-05-25T07:32:47.444Z,81.31
2019-05-25T07:33:47.591Z,80.69
2019-05-25T07:34:48.027Z,80.29
2019-05-25T07:35:47.918Z,81.93
2019-05-25T07:36:48.073Z,81.10
2019-05-25T07:37:48.233Z,80.25
2019-05-25T07:38:48.370Z,79.53
2019-05-25T07:39:48.539Z,80.93
2019-05-25T07:40:48.716Z,78.92
2019-05-25T07:41:48.860Z,79.53
2019-05-25T07:42:50.014Z,80.35
2019-05-25T07:43:49.128Z,79.64
2019-05-25T07:44:49.299Z,80.35
2019-05-25T07:45:49.476Z,79.94
2019-05-25T07:46:49.631Z,79.84
2019-05-25T07:47:49.790Z,80.19
2019-05-25T07:48:50.554Z,80.25
2019-05-25T07:49:51.090Z,80.49
2019-05-25T07:50:50.347Z,79.88
2019-05-25T07:51:50.544Z,80.15
2019-05-25T07:52:50.725Z,80.08
2019-05-25T07:53:50.964Z,80.08
2019-05-25T07:54:51.995Z,80.08
2019-05-25T07:55:51.414Z,80.39
2019-05-25T07:56:52.489Z,79.98
2019-05-25T07:57:51.734Z,81.31
2019-05-25T07:58:51.874Z,81.62
2019-05-25T07:59:52.034Z,81.48
2019-05-25T08:00:52.241Z,81.27
2019-05-25T08:01:52.421Z,80.66
2019-05-25T08:02:53.509Z,81.07
2019-05-25T08:03:52.854Z,80.93
2019-05-25T08:04:53.021Z,80.21
2019-05-25T08:05:53.226Z,78.68
2019-05-25T08:06:53.370Z,78.64
2019-05-25T08:07:53.514Z,79.57
2019-05-25T08:08:53.680Z,79.46
2019-05-25T08:09:53.847Z,77.66
2019-05-25T08:10:54.021Z,78.23
2019-05-25T08:11:54.196Z,78.88
2019-05-25T08:12:54.351Z,78.44
2019-05-25T08:13:55.495Z,78.44
2019-05-25T08:14:54.636Z,78.68
2019-05-25T08:15:54.788Z,78.78
2019-05-25T08:16:54.945Z,79.39
2019-05-25T08:17:55.070Z,79.29
2019-05-25T08:18:56.208Z,80.11
2019-05-25T08:19:55.456Z,79.39
2019-05-25T08:20:55.632Z,79.91
2019-05-25T08:21:55.787Z,79.50
2019-05-25T08:22:55.948Z,78.95
2019-05-25T08:23:56.071Z,78.23
2019-05-25T08:24:56.205Z,78.78
2019-05-25T08:25:56.336Z,78.03
2019-05-25T08:26:56.506Z,78.03
2019-05-25T08:27:56.701Z,78.23
2019-05-25T08:28:56.883Z,78.13
2019-05-25T08:29:57.992Z,77.79
2019-05-25T08:31:00.702Z,77.59
2019-05-25T08:31:57.420Z,77.75
2019-05-25T08:32:57.617Z,77.96
2019-05-25T08:33:58.504Z,75.82
2019-05-25T08:34:58.017Z,76.22
2019-05-25T08:35:58.183Z,75.07
2019-05-25T08:36:58.339Z,75.64
2019-05-25T08:37:58.511Z,74.73
2019-05-25T08:38:58.676Z,75.64
2019-05-25T08:39:58.830Z,73.50
2019-05-25T08:40:58.994Z,73.10
2019-05-25T08:41:59.115Z,72.89
2019-05-25T08:42:59.256Z,72.58
2019-05-25T08:43:59.407Z,71.67
2019-05-25T08:45:00.497Z,73.30
2019-05-25T08:45:59.733Z,72.38
2019-05-25T08:46:59.882Z,73.57
2019-05-25T08:48:00.043Z,72.86
2019-05-25T08:49:00.236Z,72.65
2019-05-25T08:50:01.017Z,71.39
2019-05-25T08:51:00.527Z,70.28
2019-05-25T08:52:04.081Z,70.89
2019-05-25T08:53:00.863Z,71.09
2019-05-25T08:54:01.068Z,71.06
2019-05-25T08:55:01.361Z,71.64
2019-05-25T08:56:01.440Z,68.79
2019-05-25T08:57:01.632Z,67.33
2019-05-25T08:58:02.517Z,68.21
2019-05-25T08:59:02.050Z,67.91
2019-05-25T09:00:02.205Z,70.35
2019-05-25T09:01:02.407Z,69.94
2019-05-25T09:02:02.589Z,69.50
2019-05-25T09:03:02.728Z,68.38
2019-05-25T09:04:02.983Z,66.29
2019-05-25T09:05:03.151Z,64.40
2019-05-25T09:06:03.302Z,62.92
2019-05-25T09:07:04.003Z,61.74
2019-05-25T09:08:03.649Z,61.91
2019-05-25T09:09:03.793Z,59.38
2019-05-25T09:10:03.980Z,57.96
2019-05-25T09:11:04.100Z,59.97
2019-05-25T09:12:05.036Z,61.25
2019-05-25T09:13:04.524Z,61.36
2019-05-25T09:14:04.690Z,61.23
2019-05-25T09:15:05.999Z,61.60
2019-05-25T09:16:06.036Z,59.88
2019-05-25T09:17:05.145Z,60.01
2019-05-25T09:18:06.159Z,60.24
2019-05-25T09:19:05.439Z,61.97
2019-05-25T09:20:05.579Z,60.14
2019-05-25T09:21:05.752Z,61.69
2019-05-25T09:22:06.000Z,61.90
2019-05-25T09:23:06.154Z,60.17
2019-05-25T09:24:06.302Z,63.52
2019-05-25T09:25:07.076Z,61.39
2019-05-25T09:26:06.569Z,60.69
2019-05-25T09:27:06.700Z,59.78
2019-05-25T09:28:06.873Z,57.75
2019-05-25T09:29:07.010Z,60.24
2019-05-25T09:30:07.150Z,62.27
2019-05-25T09:31:07.296Z,59.81
2019-05-25T09:32:07.460Z,59.74
2019-05-25T09:33:07.856Z,59.33
2019-05-25T09:34:07.920Z,59.77
2019-05-25T09:35:09.028Z,60.14
2019-05-25T09:36:08.272Z,61.59
2019-05-25T09:37:08.439Z,63.42
2019-05-25T09:38:08.558Z,63.39
2019-05-25T09:39:08.698Z,62.17
2019-05-25T09:40:09.524Z,61.46
2019-05-25T09:41:09.013Z,61.94
2019-05-25T09:42:09.171Z,61.63
2019-05-25T09:43:09.369Z,62.14
2019-05-25T09:44:09.552Z,59.78
2019-05-25T09:45:09.709Z,59.48
2019-05-25T09:46:09.873Z,61.60
2019-05-25T09:47:10.044Z,61.17
2019-05-25T09:48:10.200Z,60.26
2019-05-25T09:49:10.382Z,59.58
2019-05-25T09:50:11.022Z,61.20
2019-05-25T09:51:15.361Z,60.06
2019-05-25T09:52:13.036Z,59.55
2019-05-25T09:53:11.597Z,59.25
2019-05-25T09:54:11.283Z,59.55
2019-05-25T09:55:11.432Z,59.58
2019-05-25T09:56:12.517Z,58.94
2019-05-25T09:57:11.738Z,58.03
2019-05-25T09:58:11.910Z,59.45
2019-05-25T09:59:19.981Z,59.01
2019-05-25T10:00:14.272Z,59.83
2019-05-25T10:01:12.370Z,58.71
2019-05-25T10:02:12.500Z,57.73
2019-05-25T10:03:12.684Z,58.03
2019-05-25T10:04:12.849Z,59.85
2019-05-25T10:05:13.558Z,60.03
2019-05-25T10:06:13.499Z,57.07
2019-05-25T10:07:14.342Z,55.77
2019-05-25T10:08:13.485Z,57.75
2019-05-25T10:09:13.609Z,58.84
2019-05-25T10:10:14.796Z,58.94
2019-05-25T10:11:13.932Z,58.03
2019-05-25T10:12:16.120Z,61.71
2019-05-25T10:13:15.277Z,59.78
2019-05-25T10:14:14.405Z,60.93
2019-05-25T10:15:14.639Z,62.04
2019-05-25T10:16:14.797Z,63.35
2019-05-25T10:17:14.985Z,60.21
2019-05-25T10:18:15.176Z,60.39
2019-05-25T10:19:15.319Z,61.51
2019-05-25T10:20:15.504Z,61.20
2019-05-25T10:21:15.671Z,59.95
2019-05-25T10:22:15.836Z,59.75
2019-05-25T10:23:16.033Z,58.31
2019-05-25T10:24:16.218Z,56.96
2019-05-25T10:25:16.420Z,59.83
2019-05-25T10:26:16.636Z,59.12
2019-05-25T10:27:16.807Z,59.42
2019-05-25T10:28:16.995Z,58.78
2019-05-25T10:29:17.168Z,57.87
2019-05-25T10:30:17.336Z,57.67
2019-05-25T10:31:17.497Z,57.27
2019-05-25T10:32:17.692Z,56.94
2019-05-25T10:33:21.538Z,57.44
2019-05-25T10:34:18.022Z,57.75
2019-05-25T10:35:19.056Z,57.92
2019-05-25T10:36:18.431Z,56.61
2019-05-25T10:37:18.571Z,57.01
2019-05-25T10:38:18.751Z,56.71
2019-05-25T10:39:19.536Z,56.35
2019-05-25T10:40:19.155Z,54.63
2019-05-25T10:41:19.315Z,54.83
2019-05-25T10:42:19.475Z,52.31
2019-05-25T10:43:19.621Z,54.74
2019-05-25T10:44:19.763Z,54.83
2019-05-25T10:45:19.995Z,53.05
2019-05-25T10:46:20.257Z,52.34
2019-05-25T10:47:20.580Z,53.67
2019-05-25T10:48:20.615Z,54.71
2019-05-25T10:49:20.769Z,54.21
2019-05-25T10:50:20.907Z,55.52
2019-05-25T10:51:21.152Z,54.89
2019-05-25T10:52:21.558Z,56.00
2019-05-25T10:53:21.435Z,55.57
2019-05-25T10:54:21.589Z,55.16
2019-05-25T10:55:22.546Z,55.07
2019-05-25T10:56:22.060Z,54.43
2019-05-25T10:57:22.062Z,54.94
2019-05-25T10:58:23.038Z,52.19
2019-05-25T10:59:23.050Z,54.10
2019-05-25T11:00:22.653Z,54.68
2019-05-25T11:01:23.074Z,52.97
2019-05-25T11:02:23.044Z,52.34
2019-05-25T11:03:23.181Z,50.93
2019-05-25T11:04:23.325Z,54.38
2019-05-25T11:05:23.449Z,52.06
2019-05-25T11:06:23.570Z,54.58
2019-05-25T11:07:23.707Z,56.81
2019-05-25T11:08:23.895Z,53.58
2019-05-25T11:09:24.563Z,54.00
2019-05-25T11:10:24.167Z,52.69
2019-05-25T11:11:24.337Z,54.00
2019-05-25T11:12:26.111Z,52.59
2019-05-25T11:13:25.698Z,52.59
2019-05-25T11:14:24.828Z,55.29
2019-05-25T11:15:24.961Z,54.28
2019-05-25T11:16:25.210Z,54.89
2019-05-25T11:17:25.350Z,52.94
2019-05-25T11:18:25.479Z,53.65
2019-05-25T11:19:25.666Z,53.25
2019-05-25T11:20:25.770Z,52.51
2019-05-25T11:21:26.094Z,52.34
2019-05-25T11:22:26.249Z,51.89
2019-05-25T11:23:26.359Z,54.21
2019-05-25T11:24:26.635Z,50.90
2019-05-25T11:25:26.763Z,52.41
2019-05-25T11:26:26.884Z,53.93
2019-05-25T11:27:27.026Z,57.54
2019-05-25T11:28:27.176Z,54.28
2019-05-25T11:29:27.419Z,55.36
2019-05-25T11:30:27.565Z,57.38
2019-05-25T11:31:28.562Z,52.62
2019-05-25T11:32:27.826Z,54.53
2019-05-25T11:33:28.058Z,56.04
2019-05-25T11:34:28.299Z,52.19
2019-05-25T11:35:28.449Z,51.99
2019-05-25T11:36:28.593Z,52.69
2019-05-25T11:37:28.716Z,50.98
2019-05-25T11:38:28.956Z,55.01
2019-05-25T11:39:29.227Z,51.93
2019-05-25T11:40:29.370Z,54.46
2019-05-25T11:41:29.531Z,55.16
2019-05-25T11:42:29.726Z,54.68
2019-05-25T11:43:29.849Z,56.07
2019-05-25T11:44:30.082Z,54.73
2019-05-25T11:45:30.579Z,51.99
2019-05-25T11:46:30.564Z,53.65
2019-05-25T11:47:31.579Z,53.38
2019-05-25T11:48:30.943Z,52.26
2019-05-25T11:49:31.067Z,51.59
2019-05-25T11:50:31.598Z,54.68
2019-05-25T11:51:31.381Z,50.57
2019-05-25T11:52:31.540Z,50.78
2019-05-25T11:53:32.564Z,52.62
2019-05-25T11:54:32.579Z,50.50
2019-05-25T11:55:31.984Z,51.31
2019-05-25T11:56:32.137Z,50.55
2019-05-25T11:57:33.076Z,51.66
2019-05-25T11:58:46.659Z,53.17
2019-05-25T11:59:34.689Z,56.27
2019-05-25T12:00:33.082Z,50.52
2019-05-25T12:01:32.984Z,51.53
2019-05-25T12:02:33.164Z,55.94
2019-05-25T12:03:33.373Z,52.62
2019-05-25T12:04:34.061Z,53.07
2019-05-25T12:05:34.077Z,51.66
2019-05-25T12:06:33.871Z,53.95
2019-05-25T12:07:34.551Z,51.21
2019-05-25T12:08:34.229Z,50.48
2019-05-25T12:09:34.405Z,50.35
2019-05-25T12:10:34.583Z,50.93
2019-05-25T12:11:34.750Z,49.93
2019-05-25T12:12:34.871Z,48.70
2019-05-25T12:13:35.027Z,47.32
2019-05-25T12:14:35.166Z,51.36
2019-05-25T12:15:35.312Z,50.28
2019-05-25T12:16:35.470Z,49.19
2019-05-25T12:17:36.599Z,50.25
2019-05-25T12:18:35.921Z,49.29
2019-05-25T12:19:36.008Z,50.62
2019-05-25T12:20:36.131Z,52.54
2019-05-25T12:21:36.371Z,51.23
2019-05-25T12:22:36.556Z,50.82
2019-05-25T12:23:36.689Z,52.06
2019-05-25T12:24:37.838Z,52.41
2019-05-25T12:25:37.074Z,52.03
2019-05-25T12:26:37.202Z,52.97
2019-05-25T12:27:37.371Z,50.54
2019-05-25T12:28:37.485Z,54.08
2019-05-25T12:29:37.617Z,52.76
2019-05-25T12:30:40.862Z,54.86
2019-05-25T12:31:38.934Z,55.90
2019-05-25T12:32:38.585Z,55.40
2019-05-25T12:33:38.364Z,53.88
2019-05-25T12:34:38.584Z,54.76
2019-05-25T12:35:38.710Z,54.56
2019-05-25T12:36:38.882Z,55.27
2019-05-25T12:37:38.999Z,55.65
2019-05-25T12:38:39.115Z,55.65
2019-05-25T12:39:39.594Z,55.29
2019-05-25T12:40:52.837Z,54.79
2019-05-25T12:41:41.664Z,54.68
2019-05-25T12:42:40.909Z,54.58
2019-05-25T12:43:40.000Z,53.00
2019-05-25T12:44:40.604Z,53.80
2019-05-25T12:45:42.214Z,54.51
2019-05-25T12:46:41.510Z,55.09
2019-05-25T12:47:40.745Z,54.48
2019-05-25T12:48:59.784Z,52.54
2019-05-25T12:49:50.441Z,52.34
2019-05-25T12:50:43.274Z,50.40
2019-05-25T12:51:41.476Z,51.93
2019-05-25T12:52:41.622Z,54.43
2019-05-25T12:53:41.784Z,53.00
2019-05-25T12:54:42.579Z,49.16